createdAt,value
2018-11-12T07:24:48.580Z,36.27
2018-11-12T07:27:17.188Z,39.93
2018-11-12T07:29:45.401Z,41.40
2018-11-12T07:32:13.656Z,41.77
2018-11-12T07:34:41.890Z,41.83
2018-11-12T07:37:10.105Z,42.40
2018-11-12T07:39:41.648Z,39.20
2018-11-12T07:42:09.956Z,37.27
2018-11-12T07:44:38.155Z,35.17
2018-11-12T07:47:06.381Z,31.10
2018-11-12T07:49:34.627Z,28.33
2018-11-12T07:52:02.860Z,29.93
2018-11-12T07:54:31.444Z,29.07
2018-11-12T07:56:59.661Z,27.50
2018-11-12T07:59:27.921Z,24.27
2018-11-12T08:01:56.169Z,25.10
2018-11-12T08:04:24.426Z,24.90
2018-11-12T08:06:52.664Z,24.60
2018-11-12T08:09:20.920Z,21.60
2018-11-12T08:11:49.196Z,20.77
2018-11-12T08:14:17.422Z,20.57
2018-11-12T08:16:45.648Z,21.43
2018-11-12T08:19:13.892Z,19.37
2018-11-12T08:21:42.139Z,20.77
2018-11-12T08:24:10.473Z,20.77
2018-11-12T08:26:38.619Z,19.00
2018-11-12T08:29:06.856Z,20.23
2018-11-12T08:31:35.329Z,18.77
2018-11-12T08:34:03.584Z,19.10
2018-11-12T08:36:31.820Z,19.80
2018-11-12T08:39:00.114Z,17.50
2018-11-12T08:41:28.349Z,17.67
2018-11-12T08:43:56.592Z,18.73
2018-11-12T08:46:31.491Z,17.50
2018-11-12T08:48:59.798Z,16.77
2018-11-12T08:51:27.992Z,16.40
2018-11-12T08:53:56.238Z,14.40
2018-11-12T08:56:24.452Z,14.40
2018-11-12T08:58:52.694Z,14.03
2018-11-12T09:01:20.938Z,15.47
2018-11-12T09:03:49.231Z,14.97
2018-11-12T09:06:17.440Z,14.80
2018-11-12T09:08:45.684Z,14.77
2018-11-12T09:11:13.921Z,14.43
2018-11-12T09:13:42.795Z,14.07
2018-11-12T09:16:10.413Z,12.73
2018-11-12T09:18:38.667Z,12.57
2018-11-12T09:21:06.896Z,11.80
2018-11-12T09:23:35.147Z,11.30
2018-11-12T09:26:03.407Z,11.10
2018-11-12T09:28:31.652Z,10.63
2018-11-12T09:31:00.989Z,10.03
2018-11-12T09:33:28.140Z,9.77
2018-11-12T09:35:56.398Z,10.77
2018-11-12T09:38:24.666Z,10.00
2018-11-12T09:40:52.915Z,10.83
2018-11-12T09:43:21.157Z,9.70
2018-11-12T09:45:49.431Z,9.83
2018-11-12T09:48:17.660Z,9.70
2018-11-12T09:50:45.917Z,10.27
2018-11-12T09:53:14.140Z,9.33
2018-11-12T09:55:42.407Z,10.57
2018-11-12T09:58:10.659Z,9.70
2018-11-12T10:00:39.076Z,8.53
2018-11-12T10:03:07.734Z,9.30
2018-11-12T10:05:37.077Z,9.43
2018-11-12T10:08:10.637Z,10.17
2018-11-12T10:10:44.299Z,9.67
2018-11-12T10:13:14.630Z,10.63
2018-11-12T10:15:43.519Z,10.23
2018-11-12T10:20:37.740Z,10.23
2018-11-12T10:23:05.991Z,11.13
2018-11-12T10:25:34.243Z,10.47
2018-11-12T10:28:02.472Z,10.90
2018-11-12T10:30:30.734Z,9.60
2018-11-12T10:32:58.966Z,11.13
2018-11-12T10:35:27.217Z,9.73
2018-11-12T10:37:55.440Z,11.03
2018-11-12T10:40:24.538Z,10.97
2018-11-12T10:42:52.865Z,10.77
2018-11-12T10:45:21.172Z,11.10
2018-11-12T10:47:50.447Z,10.00
2018-11-12T10:50:18.712Z,11.57
2018-11-12T10:52:46.949Z,11.07
2018-11-12T10:55:16.698Z,11.20
2018-11-12T10:57:45.384Z,11.30
2018-11-12T11:00:24.207Z,10.57
2018-11-12T11:02:58.505Z,10.63
2018-11-12T11:05:26.768Z,10.90
2018-11-12T11:07:55.117Z,10.73
2018-11-12T11:10:26.483Z,10.90
2018-11-12T11:12:55.320Z,11.40
2018-11-12T11:15:23.582Z,11.20
2018-11-12T11:17:51.807Z,10.83
2018-11-12T11:20:20.043Z,11.40
2018-11-12T11:22:48.275Z,11.33
2018-11-12T11:25:16.520Z,11.57
2018-11-12T11:27:44.753Z,11.77
2018-11-12T11:30:16.153Z,11.23
2018-11-12T11:32:44.530Z,11.87
2018-11-12T11:35:13.916Z,11.10
2018-11-12T11:37:42.158Z,11.07
2018-11-12T11:40:20.395Z,10.30
2018-11-12T11:42:48.579Z,12.17
2018-11-12T11:45:17.585Z,11.43
2018-11-12T11:47:46.700Z,12.57
2018-11-12T11:50:16.330Z,12.50
2018-11-12T11:52:44.494Z,12.60
2018-11-12T11:55:14.120Z,12.60
2018-11-12T11:57:42.746Z,13.30
2018-11-12T12:00:15.740Z,13.63
2018-11-12T12:02:44.852Z,13.30
2018-11-12T12:05:14.072Z,12.80
2018-11-12T12:07:42.380Z,12.27
2018-11-12T12:10:11.426Z,13.93
2018-11-12T12:12:39.922Z,12.57
2018-11-12T12:15:09.564Z,13.20
2018-11-12T12:17:37.959Z,12.57
2018-11-12T12:20:07.788Z,12.87
2018-11-12T12:22:36.033Z,13.77
2018-11-12T12:25:04.954Z,12.97
2018-11-12T12:27:33.132Z,14.03
2018-11-12T12:30:01.367Z,12.80
2018-11-12T12:32:29.613Z,13.17
2018-11-12T12:34:57.840Z,12.63
2018-11-12T12:37:26.088Z,13.60
2018-11-12T12:39:54.321Z,11.87
2018-11-12T12:42:22.602Z,14.13
2018-11-12T12:44:50.884Z,13.03
2018-11-12T12:47:19.132Z,11.97
2018-11-12T12:49:47.356Z,11.07
2018-11-12T12:52:15.613Z,11.50
2018-11-12T12:54:43.845Z,11.73
2018-11-12T12:57:12.102Z,11.60
2018-11-12T12:59:40.482Z,10.97
2018-11-12T13:02:08.748Z,11.50
2018-11-12T13:04:37.032Z,11.60
2018-11-12T13:07:05.268Z,11.63
2018-11-12T13:09:33.504Z,12.03
2018-11-12T13:12:01.741Z,11.07
2018-11-12T13:14:29.989Z,10.73
2018-11-12T13:16:58.263Z,11.77
2018-11-12T13:19:26.509Z,11.53
2018-11-12T13:21:54.748Z,12.00
2018-11-12T13:24:22.972Z,12.23
2018-11-12T13:26:51.217Z,12.50
2018-11-12T13:29:19.532Z,12.80
2018-11-12T13:31:47.784Z,13.00
2018-11-12T13:34:16.012Z,13.10
2018-11-12T13:36:44.257Z,14.27
2018-11-12T13:39:13.341Z,13.67
2018-11-12T13:41:41.820Z,12.30
2018-11-12T13:44:10.201Z,13.97
2018-11-12T13:46:43.873Z,14.40
2018-11-12T13:49:12.113Z,15.17
2018-11-12T13:51:40.375Z,15.30
2018-11-12T13:54:09.102Z,13.87
2018-11-12T13:56:37.353Z,15.20
2018-11-12T13:59:05.666Z,15.07
2018-11-12T14:01:33.909Z,16.40
2018-11-12T14:04:02.136Z,13.43
2018-11-12T14:06:30.397Z,16.07
2018-11-12T14:08:58.625Z,15.20
2018-11-12T14:11:26.857Z,16.43
2018-11-12T14:13:55.758Z,15.43
2018-11-12T14:16:23.936Z,16.53
2018-11-12T14:18:52.191Z,16.10
2018-11-12T14:21:20.548Z,16.57
2018-11-12T14:23:48.698Z,16.77
2018-11-12T14:26:16.928Z,16.90
2018-11-12T14:28:45.259Z,16.53
2018-11-12T14:31:13.416Z,17.87
2018-11-12T14:33:41.669Z,16.27
2018-11-12T14:36:09.970Z,16.80
2018-11-12T14:38:38.160Z,17.33
2018-11-12T14:41:06.413Z,17.60
2018-11-12T14:43:34.676Z,18.63
2018-11-12T14:46:02.920Z,17.77
2018-11-12T14:48:31.174Z,18.07
2018-11-12T14:50:59.399Z,18.27
2018-11-12T14:53:27.664Z,18.20
2018-11-12T14:55:55.892Z,18.20
2018-11-12T14:58:24.149Z,18.07
2018-11-12T15:00:52.390Z,18.40
2018-11-12T15:03:20.644Z,16.77
2018-11-12T15:05:48.876Z,18.43
2018-11-12T15:08:17.128Z,19.50
2018-11-12T15:10:45.356Z,20.93
2018-11-12T15:13:13.603Z,21.20
2018-11-12T15:15:41.840Z,20.23
2018-11-12T15:18:10.097Z,21.13
2018-11-12T15:20:38.333Z,19.77
2018-11-12T15:23:06.585Z,20.70
2018-11-12T15:25:34.816Z,19.10
2018-11-12T15:28:03.085Z,19.37
2018-11-12T15:30:31.325Z,19.03
2018-11-12T15:32:59.562Z,20.30
2018-11-12T15:35:27.816Z,20.00
2018-11-12T15:37:56.048Z,19.73
2018-11-12T15:40:24.292Z,20.73
2018-11-12T15:42:52.538Z,20.10
2018-11-12T15:45:22.059Z,19.47
2018-11-12T15:47:50.565Z,19.93
2018-11-12T15:50:23.385Z,18.70
2018-11-12T15:52:51.612Z,18.63
2018-11-12T15:55:19.874Z,19.30
2018-11-12T15:57:48.208Z,19.97
2018-11-12T16:00:17.027Z,21.20
2018-11-12T16:02:45.264Z,20.77
2018-11-12T16:05:13.988Z,20.80
2018-11-12T16:07:42.346Z,23.20
2018-11-12T16:10:13.898Z,19.40
2018-11-12T16:12:42.165Z,18.33
2018-11-12T16:15:11.177Z,20.70
2018-11-12T16:17:39.809Z,20.03
2018-11-12T16:20:16.018Z,21.50
2018-11-12T16:22:44.896Z,20.87
2018-11-12T16:25:13.214Z,20.63
2018-11-12T16:27:41.833Z,23.23
2018-11-12T16:30:10.642Z,21.47
2018-11-12T16:32:39.330Z,21.13
2018-11-12T16:35:09.616Z,21.50
2018-11-12T16:37:37.853Z,20.70
2018-11-12T16:40:06.411Z,19.83
2018-11-12T16:42:34.621Z,21.67
2018-11-12T16:45:02.942Z,21.10
2018-11-12T16:47:31.168Z,21.33
2018-11-12T16:49:59.428Z,21.23
2018-11-12T16:52:27.652Z,21.00
2018-11-12T16:54:55.900Z,20.97
2018-11-12T16:57:24.128Z,22.67
2018-11-12T16:59:52.388Z,22.90
2018-11-12T17:02:20.617Z,21.63
2018-11-12T17:04:48.872Z,23.33
2018-11-12T17:07:17.112Z,23.90
2018-11-12T17:09:45.504Z,23.20
2018-11-12T17:12:13.753Z,24.07
2018-11-12T17:14:41.985Z,25.57
2018-11-12T17:17:10.207Z,23.47
2018-11-12T17:19:38.428Z,23.13
2018-11-12T17:22:06.672Z,24.80
2018-11-12T17:24:34.898Z,23.60
2018-11-12T17:27:03.153Z,24.33
2018-11-12T17:29:31.393Z,26.10
2018-11-12T17:31:59.657Z,26.23
2018-11-12T17:34:27.889Z,26.07
2018-11-12T17:36:56.136Z,25.40
2018-11-12T17:39:24.367Z,25.47
2018-11-12T17:41:52.642Z,24.87
2018-11-12T17:44:20.859Z,26.47
2018-11-12T17:46:49.109Z,25.50
2018-11-12T17:49:17.334Z,25.33
2018-11-12T17:51:45.624Z,27.10
2018-11-12T17:54:13.850Z,28.40
2018-11-12T17:56:42.106Z,26.30
2018-11-12T17:59:10.340Z,26.57
2018-11-12T18:01:38.677Z,25.97
2018-11-12T18:04:06.848Z,26.63
2018-11-12T18:06:35.112Z,26.70
2018-11-12T18:09:04.072Z,29.40
2018-11-12T18:11:32.328Z,26.97
2018-11-12T18:14:00.560Z,27.67
2018-11-12T18:16:28.812Z,28.00
2018-11-12T18:18:57.041Z,26.43
2018-11-12T18:21:25.281Z,27.27
2018-11-12T18:23:53.508Z,27.27
2018-11-12T18:26:21.756Z,28.60
2018-11-12T18:28:49.989Z,26.93
2018-11-12T18:31:18.504Z,26.97
2018-11-12T18:33:46.540Z,28.73
2018-11-12T18:36:14.805Z,28.70
2018-11-12T18:38:43.032Z,26.83
2018-11-12T18:41:11.276Z,27.70
2018-11-12T18:43:39.522Z,27.43
2018-11-12T18:46:07.789Z,27.50
2018-11-12T18:48:36.025Z,29.07
2018-11-12T18:51:04.279Z,27.00
2018-11-12T18:53:32.516Z,28.10
2018-11-12T18:56:00.774Z,27.83
2018-11-12T18:58:29.024Z,27.53
2018-11-12T19:00:57.244Z,26.97
2018-11-12T19:03:25.500Z,27.47
2018-11-12T19:05:53.724Z,28.33
2018-11-12T19:08:21.974Z,28.83
2018-11-12T19:10:50.219Z,28.80
2018-11-12T19:13:18.472Z,29.23
2018-11-12T19:15:46.709Z,28.50
2018-11-12T19:18:14.966Z,25.90
2018-11-12T19:20:43.200Z,28.07
2018-11-12T19:23:11.454Z,26.37
2018-11-12T19:25:39.693Z,28.50
2018-11-12T19:28:07.944Z,26.70
2018-11-12T19:30:36.185Z,26.70
2018-11-12T19:33:04.636Z,27.40
2018-11-12T19:35:39.461Z,26.20
2018-11-12T19:38:07.700Z,24.97
2018-11-12T19:40:35.926Z,24.27
2018-11-12T19:43:04.196Z,26.13
2018-11-12T19:45:32.433Z,25.50
2018-11-12T19:48:00.683Z,26.70
2018-11-12T19:50:29.520Z,27.40
2018-11-12T19:52:58.508Z,25.97
2018-11-12T19:55:26.755Z,25.00
2018-11-12T19:57:55.004Z,25.10
2018-11-12T20:00:24.674Z,26.40
2018-11-12T20:02:54.217Z,26.20
2018-11-12T20:05:22.481Z,24.57
2018-11-12T20:07:50.720Z,24.57
2018-11-12T20:10:20.156Z,24.23
2018-11-12T20:12:48.392Z,23.37
2018-11-12T20:15:17.947Z,23.43
2018-11-12T20:17:47.054Z,25.57
2018-11-12T20:20:21.471Z,23.87
2018-11-12T20:22:50.131Z,24.13
2018-11-12T20:25:19.112Z,24.20
2018-11-12T20:27:48.083Z,24.57
2018-11-12T20:30:19.023Z,23.83
2018-11-12T20:32:47.499Z,25.17
2018-11-12T20:35:15.765Z,23.20
2018-11-12T20:37:44.028Z,23.23
2018-11-12T20:40:13.072Z,23.73
2018-11-12T20:42:41.824Z,23.53
2018-11-12T20:45:11.177Z,23.33
2018-11-12T20:47:40.016Z,23.30
2018-11-12T20:50:08.861Z,23.70
2018-11-12T20:52:37.171Z,24.80
2018-11-12T20:55:06.166Z,22.47
2018-11-12T20:57:34.452Z,22.43
2018-11-12T21:00:02.704Z,22.57
2018-11-12T21:02:30.988Z,23.57
2018-11-12T21:04:59.216Z,23.00
2018-11-12T21:07:27.446Z,23.40
2018-11-12T21:09:55.694Z,22.53
2018-11-12T21:12:23.927Z,22.13
2018-11-12T21:14:52.172Z,23.60
2018-11-12T21:17:20.401Z,22.73
2018-11-12T21:19:48.649Z,22.63
2018-11-12T21:22:16.877Z,22.30
2018-11-12T21:24:45.124Z,22.07
2018-11-12T21:27:13.360Z,22.63
2018-11-12T21:29:41.607Z,21.53
2018-11-12T21:32:09.837Z,23.33
2018-11-12T21:34:38.084Z,23.30
2018-11-12T21:37:06.362Z,23.30
